Date,TemperatureHighF,TemperatureAvgF,TemperatureLowF,DewpointHighF,DewpointAvgF,DewpointLowF,HumidityHigh,HumidityAvg,HumidityLow,PressureMaxIn,PressureMinIn,WindSpeedMaxMPH,WindSpeedAvgMPH,GustSpeedMaxMPH,PrecipitationSumIn
2013-11-1,64.1,50.0,39.1,53.0,44.4,38.8,100,83,51,30.00,29.72,26,1,26,0.01
2013-11-2,52.5,44.4,33.4,43.5,39.7,31.5,95,84,65,30.26,29.99,16,3,16,0.00
2013-11-3,57.5,44.7,29.8,44.3,37.5,28.8,99,78,57,30.31,30.10,20,3,20,0.00
2013-11-4,57.7,51.6,48.0,51.0,45.8,41.2,96,81,72,30.22,30.09,17,4,17,0.00
2013-11-5,58.7,54.8,52.1,58.7,54.6,50.9,100,99,96,30.21,29.99,20,5,20,0.70
2013-11-6,59.2,46.0,38.5,59.2,44.5,35.3,100,95,85,30.39,29.91,18,4,18,0.48
2013-11-7,57.9,41.5,28.4,44.4,34.7,26.8,97,79,47,30.49,30.38,16,1,16,0.01
2013-11-8,62.5,46.3,29.8,42.9,36.4,28.7,98,72,43,30.42,30.13,16,3,16,0.00
2013-11-9,65.1,50.8,39.6,47.2,41.7,37.8,94,73,48,30.30,30.14,9,1,13,0.00
2013-11-10,64.7,47.9,35.0,41.2,38.1,33.7,97,73,36,30.44,30.30,14,1,14,0.00
2013-11-11,61.8,50.0,37.9,53.2,44.9,35.7,94,83,68,30.47,30.21,23,2,23,0.01
2013-11-12,38.0,29.8,19.2,36.2,21.7,16.0,94,73,48,30.80,30.47,14,4,19,0.00
2013-11-13,48.5,31.5,15.3,24.3,18.8,13.1,93,64,31,30.78,30.40,12,2,12,0.00
2013-11-14,54.9,42.0,27.3,29.3,23.9,19.8,76,51,29,30.40,30.10,15,2,15,0.00
2013-11-15,56.1,47.7,41.3,49.3,41.9,29.1,95,81,53,30.11,29.91,17,3,17,0.02
2013-11-16,68.7,60.4,50.7,61.7,56.3,49.3,96,87,70,29.92,29.63,28,5,28,0.00
2013-11-17,73.8,64.9,48.9,64.8,47.6,24.6,91,57,30,30.05,29.50,28,5,31,0.00
2013-11-18,57.8,43.6,31.9,41.6,32.8,29.0,92,69,36,30.33,30.05,9,1,12,0.00
2013-11-19,54.7,44.3,32.5,35.1,30.2,23.7,91,61,33,30.34,30.15,16,4,17,0.00
2013-11-20,56.0,47.2,38.6,35.8,31.8,25.5,76,56,39,30.16,29.97,21,5,21,0.01
2013-11-21,52.7,49.2,46.4,49.4,46.0,35.2,98,90,52,30.27,30.05,14,2,14,1.07
2013-11-22,46.6,32.6,30.0,45.8,31.7,28.7,98,96,95,30.59,30.26,20,6,20,0.00
2013-11-23,38.1,29.9,18.6,29.9,22.5,12.5,95,75,59,30.76,30.59,13,5,20,0.00
2013-11-24,28.8,22.2,14.1,14.6,11.7,7.7,84,65,42,30.78,30.47,13,2,13,0.00
2013-11-25,34.9,30.7,27.6,30.6,23.8,12.3,92,76,52,30.47,30.24,12,2,12,0.03
2013-11-26,42.6,33.2,23.3,33.3,26.6,15.5,89,77,61,30.38,30.17,20,6,24,0.00
2013-11-27,33.6,23.4,16.6,16.9,14.3,11.5,87,69,45,30.49,30.38,21,3,21,0.00
2013-11-28,52.3,33.8,21.1,32.0,23.5,16.0,88,68,44,30.53,30.37,20,1,20,0.00
2013-11-29,52.9,37.2,21.8,33.7,28.2,19.6,94,72,46,30.58,30.40,14,2,14,0.00
2013-11-30,59.9,43.8,31.9,44.4,36.0,28.0,92,75,55,30.40,30.15,16,2,16,0.00